createdAt,value
2022-10-12T00:02:09.099Z,101458.27
2022-10-12T00:04:38.152Z,101459.83
2022-10-12T00:07:07.026Z,101462.42
2022-10-12T00:09:35.952Z,101463.29
2022-10-12T00:12:05.007Z,101466.73
2022-10-12T00:14:37.721Z,101465.18
2022-10-12T00:17:06.675Z,101466.55
2022-10-12T00:19:35.635Z,101465.70
2022-10-12T00:22:04.827Z,101465.68
2022-10-12T00:24:33.996Z,101463.79
2022-10-12T00:27:02.894Z,101464.30
2022-10-12T00:29:31.816Z,101462.23
2022-10-12T00:32:01.784Z,101460.16
2022-10-12T00:34:32.782Z,101460.69
2022-10-12T00:37:01.803Z,101462.60
2022-10-12T00:39:30.657Z,101461.04
2022-10-12T00:42:02.172Z,101468.13
2022-10-12T00:44:39.658Z,101471.58
2022-10-12T00:47:35.631Z,101471.76
2022-10-12T00:50:31.024Z,101475.71
2022-10-12T00:53:23.289Z,101472.77
2022-10-12T00:56:00.310Z,101473.30
2022-10-12T00:58:33.070Z,101472.09
2022-10-12T01:01:05.398Z,101474.51
2022-10-12T01:03:35.879Z,101477.61
2022-10-12T01:06:07.430Z,101476.05
2022-10-12T01:08:37.855Z,101475.02
2022-10-12T01:11:06.997Z,101471.73
2022-10-12T01:13:36.600Z,101471.75
2022-10-12T01:16:38.104Z,101476.25
2022-10-12T01:19:24.423Z,101475.20
2022-10-12T01:22:10.396Z,101472.77
2022-10-12T01:25:09.108Z,101472.27
2022-10-12T01:27:47.913Z,101480.71
2022-10-12T01:30:38.890Z,101479.50
2022-10-12T01:33:34.496Z,101478.98
2022-10-12T01:36:37.324Z,101483.30
2022-10-12T01:39:35.903Z,101479.50
2022-10-12T01:42:14.161Z,101480.36
2022-10-12T01:44:43.938Z,101480.89
2022-10-12T01:47:15.505Z,101480.89
2022-10-12T01:49:44.585Z,101480.54
2022-10-12T01:52:17.234Z,101481.05
2022-10-12T01:55:00.567Z,101483.13
2022-10-12T01:57:47.849Z,101476.23
2022-10-12T02:00:18.043Z,101476.22
2022-10-12T02:03:07.352Z,101478.11
2022-10-12T02:05:49.483Z,101480.19
2022-10-12T02:08:48.087Z,101479.15
2022-10-12T02:11:23.234Z,101481.05
2022-10-12T02:14:16.889Z,101479.66
2022-10-12T02:17:00.767Z,101478.46
2022-10-12T02:19:36.808Z,101480.36
2022-10-12T02:22:13.689Z,101481.20
2022-10-12T02:24:50.443Z,101483.62
2022-10-12T02:27:25.352Z,101485.51
2022-10-12T02:29:54.766Z,101481.53
2022-10-12T02:32:40.201Z,101483.08
2022-10-12T02:35:22.771Z,101474.94
2022-10-12T02:38:19.931Z,101479.75
2022-10-12T02:40:57.097Z,101486.13
2022-10-12T02:43:37.252Z,101489.20
2022-10-12T02:46:10.243Z,101488.84
2022-10-12T02:48:41.930Z,101485.38
2022-10-12T02:51:31.267Z,101481.75
2022-10-12T02:54:32.671Z,101482.27
2022-10-12T02:57:24.345Z,101482.45
2022-10-12T03:00:02.287Z,101486.61
2022-10-12T03:02:41.569Z,101488.34
2022-10-12T03:05:14.669Z,101485.77
2022-10-12T03:07:45.994Z,101486.44
2022-10-12T03:10:17.170Z,101483.27
2022-10-12T03:12:50.228Z,101484.27
2022-10-12T03:15:19.550Z,101483.86
2022-10-12T03:17:53.800Z,101486.26
2022-10-12T03:20:25.304Z,101491.77
2022-10-12T03:22:55.517Z,101486.75
2022-10-12T03:25:24.792Z,101485.54
2022-10-12T03:27:55.867Z,101487.45
2022-10-12T03:30:24.967Z,101485.40
2022-10-12T03:32:53.953Z,101490.06
2022-10-12T03:35:23.236Z,101486.27
2022-10-12T03:37:54.932Z,101486.78
2022-10-12T03:40:24.054Z,101488.35
2022-10-12T03:42:54.193Z,101491.80
2022-10-12T03:45:25.994Z,101487.15
2022-10-12T03:48:01.041Z,101486.98
2022-10-12T03:50:36.284Z,101488.71
2022-10-12T03:53:06.495Z,101488.02
2022-10-12T03:55:35.620Z,101488.35
2022-10-12T03:58:04.517Z,101489.55
2022-10-12T04:00:33.605Z,101492.15
2022-10-12T04:03:03.268Z,101493.55
2022-10-12T04:05:32.806Z,101496.49
2022-10-12T04:08:02.365Z,101496.30
2022-10-12T04:10:33.024Z,101499.93
2022-10-12T04:13:01.930Z,101496.64
2022-10-12T04:15:30.863Z,101495.26
2022-10-12T04:18:00.047Z,101497.84
2022-10-12T04:20:28.972Z,101503.17
2022-10-12T04:23:01.060Z,101503.16
2022-10-12T04:25:32.768Z,101504.33
2022-10-12T04:28:01.804Z,101502.40
2022-10-12T04:30:30.955Z,101504.81
2022-10-12T04:33:00.093Z,101505.34
2022-10-12T04:35:29.160Z,101508.09
2022-10-12T04:37:59.456Z,101506.71
2022-10-12T04:40:28.568Z,101510.84
2022-10-12T04:42:57.559Z,101508.09
2022-10-12T04:45:26.370Z,101505.16
2022-10-12T04:47:55.254Z,101510.53
2022-10-12T04:50:29.710Z,101511.23
2022-10-12T04:52:59.075Z,101518.45
2022-10-12T04:55:28.181Z,101515.81
2022-10-12T04:57:57.258Z,101515.73
2022-10-12T05:00:26.430Z,101519.11
2022-10-12T05:02:56.439Z,101517.52
2022-10-12T05:05:28.383Z,101516.81
2022-10-12T05:08:02.701Z,101516.95
2022-10-12T05:10:35.298Z,101518.13
2022-10-12T05:13:07.666Z,101523.98
2022-10-12T05:15:36.636Z,101522.98
2022-10-12T05:18:05.834Z,101523.85
2022-10-12T05:20:35.246Z,101526.92
2022-10-12T05:23:05.021Z,101528.23
2022-10-12T05:25:35.473Z,101532.48
2022-10-12T05:28:04.951Z,101529.18
2022-10-12T05:30:34.551Z,101530.70
2022-10-12T05:33:03.906Z,101533.11
2022-10-12T05:35:32.910Z,101533.15
2022-10-12T05:38:01.733Z,101535.23
2022-10-12T05:40:30.662Z,101535.74
2022-10-12T05:42:59.623Z,101535.89
2022-10-12T05:45:28.577Z,101540.02
2022-10-12T05:48:01.865Z,101537.08
2022-10-12T05:50:32.314Z,101538.06
2022-10-12T05:53:01.241Z,101536.61
2022-10-12T05:55:30.139Z,101538.29
2022-10-12T05:57:59.519Z,101536.58
2022-10-12T06:00:34.825Z,101535.19
2022-10-12T06:03:08.702Z,101541.20
2022-10-12T06:05:43.232Z,101541.24
2022-10-12T06:08:13.038Z,101544.92
2022-10-12T06:10:47.455Z,101544.95
2022-10-12T06:13:18.111Z,101543.92
2022-10-12T06:15:48.273Z,101542.92
2022-10-12T06:18:18.849Z,101544.52
2022-10-12T06:21:08.815Z,101542.14
2022-10-12T06:23:41.793Z,101543.76
2022-10-12T06:26:17.521Z,101552.13
2022-10-12T06:28:48.068Z,101556.34
2022-10-12T06:31:17.319Z,101556.93
2022-10-12T06:33:51.122Z,101553.90
2022-10-12T06:36:20.910Z,101553.98
2022-10-12T06:38:49.921Z,101555.95
2022-10-12T06:41:21.307Z,101558.62
2022-10-12T06:43:50.309Z,101559.54
2022-10-12T06:46:28.130Z,101554.61
2022-10-12T06:49:11.553Z,101557.61
2022-10-12T06:51:45.247Z,101561.11
2022-10-12T06:54:17.332Z,101559.60
2022-10-12T06:57:23.301Z,101559.98
2022-10-12T06:59:57.128Z,101558.96
2022-10-12T07:02:26.422Z,101556.92
2022-10-12T07:04:55.741Z,101554.00
2022-10-12T07:07:24.907Z,101557.09
2022-10-12T07:09:53.802Z,101558.92
2022-10-12T07:12:22.640Z,101560.04
2022-10-12T07:14:51.598Z,101563.52
2022-10-12T07:17:22.600Z,101564.09
2022-10-12T07:19:51.360Z,101561.77
2022-10-12T07:22:20.212Z,101564.73
2022-10-12T07:24:51.704Z,101567.61
2022-10-12T07:27:21.722Z,101569.31
2022-10-12T07:29:54.119Z,101567.71
2022-10-12T07:32:23.287Z,101566.98
2022-10-12T07:34:55.137Z,101566.16
2022-10-12T07:37:24.058Z,101564.41
2022-10-12T07:39:57.507Z,101563.62
2022-10-12T07:42:26.810Z,101562.41
2022-10-12T07:44:56.189Z,101562.13
2022-10-12T07:47:25.100Z,101560.67
2022-10-12T07:49:54.103Z,101560.34
2022-10-12T07:52:32.616Z,101561.91
2022-10-12T07:55:13.566Z,101561.55
2022-10-12T07:57:50.813Z,101562.67
2022-10-12T08:00:23.452Z,101563.46
2022-10-12T08:03:01.156Z,101561.55
2022-10-12T08:05:43.938Z,101555.91
2022-10-12T08:08:27.387Z,101554.48
2022-10-12T08:11:06.808Z,101556.50
2022-10-12T08:13:53.493Z,101552.73
2022-10-12T08:16:35.812Z,101549.72
2022-10-12T08:19:12.105Z,101548.15
2022-10-12T08:21:42.962Z,101545.52
2022-10-12T08:24:35.716Z,101544.80
2022-10-12T08:27:17.563Z,101543.20
2022-10-12T08:29:58.945Z,101540.64
2022-10-12T08:32:34.886Z,101543.52
2022-10-12T08:35:47.844Z,101547.35
2022-10-12T08:38:26.682Z,101548.58
2022-10-12T08:41:42.023Z,101549.77
2022-10-12T08:44:28.064Z,101548.75
2022-10-12T08:47:22.028Z,101547.23
2022-10-12T08:49:51.251Z,101545.90
2022-10-12T08:52:49.207Z,101547.67
2022-10-12T08:55:53.624Z,101544.80
2022-10-12T08:58:35.724Z,101539.44
2022-10-12T09:01:37.451Z,101536.21
2022-10-12T09:05:02.774Z,101546.11
2022-10-12T09:07:39.770Z,101546.70
2022-10-12T09:10:45.848Z,101544.38
2022-10-12T09:13:42.882Z,101545.19
2022-10-12T09:16:27.740Z,101548.05
2022-10-12T09:19:13.475Z,101548.82
2022-10-12T09:21:44.662Z,101546.06
2022-10-12T09:24:27.855Z,101546.34
2022-10-12T09:27:14.665Z,101543.35
2022-10-12T09:30:00.392Z,101542.52
2022-10-12T09:32:41.205Z,101534.83
2022-10-12T09:35:14.823Z,101535.65
2022-10-12T09:37:55.079Z,101532.81
2022-10-12T09:40:34.312Z,101535.17
2022-10-12T09:43:25.191Z,101540.54
2022-10-12T09:45:54.577Z,101542.43
2022-10-12T09:48:33.002Z,101540.44
2022-10-12T09:51:06.961Z,101537.93
2022-10-12T09:53:55.327Z,101540.47
2022-10-12T09:56:34.926Z,101541.92
2022-10-12T09:59:32.634Z,101542.27
2022-10-12T10:02:10.932Z,101537.92
2022-10-12T10:04:55.384Z,101535.39
2022-10-12T10:07:38.562Z,101529.48
2022-10-12T10:10:12.157Z,101526.88
2022-10-12T10:12:59.745Z,101523.61
2022-10-12T10:15:30.287Z,101523.44
2022-10-12T10:18:03.766Z,101523.74
2022-10-12T10:20:49.811Z,101525.17
2022-10-12T10:23:46.444Z,101526.58
2022-10-12T10:26:23.323Z,101522.53
2022-10-12T10:29:32.708Z,101519.95
2022-10-12T10:32:29.195Z,101521.06
2022-10-12T10:35:18.002Z,101523.36
2022-10-12T10:37:57.778Z,101524.70
2022-10-12T10:40:30.961Z,101524.89
2022-10-12T10:43:15.893Z,101521.43
2022-10-12T10:46:02.653Z,101521.52
2022-10-12T10:49:06.424Z,101516.33
2022-10-12T10:51:51.781Z,101513.87
2022-10-12T10:54:23.789Z,101510.88
2022-10-12T10:56:59.240Z,101510.23
2022-10-12T11:00:33.457Z,101507.20
2022-10-12T11:03:31.236Z,101500.80
2022-10-12T11:06:20.960Z,101498.85
2022-10-12T11:08:56.356Z,101496.29
2022-10-12T11:11:33.118Z,101493.92
2022-10-12T11:14:21.919Z,101493.56
2022-10-12T11:17:08.386Z,101493.15
2022-10-12T11:20:19.890Z,101494.21
2022-10-12T11:23:04.817Z,101487.95
2022-10-12T11:25:49.048Z,101487.55
2022-10-12T11:28:21.602Z,101484.45
2022-10-12T11:30:53.463Z,101485.05
2022-10-12T11:33:39.880Z,101483.13
2022-10-12T11:36:20.325Z,101477.57
2022-10-12T11:39:05.844Z,101473.10
2022-10-12T11:42:17.044Z,101470.40
2022-10-12T11:44:47.882Z,101471.27
2022-10-12T11:47:47.433Z,101473.33
2022-10-12T11:50:36.405Z,101472.92
2022-10-12T11:53:41.341Z,101474.59
2022-10-12T11:56:32.860Z,101469.80
2022-10-12T11:59:27.238Z,101470.60
2022-10-12T12:02:25.543Z,101467.16
2022-10-12T12:04:56.910Z,101464.84
2022-10-12T12:07:54.602Z,101462.70
2022-10-12T12:15:02.237Z,101462.56
2022-10-12T12:17:45.488Z,101461.56
2022-10-12T12:20:48.577Z,101459.59
2022-10-12T12:23:32.205Z,101457.25
2022-10-12T12:26:16.881Z,101457.38
2022-10-12T12:28:51.841Z,101457.70
2022-10-12T12:31:25.567Z,101455.05
2022-10-12T12:34:15.665Z,101452.02
2022-10-12T12:36:51.767Z,101454.55
2022-10-12T12:39:33.468Z,101454.05
2022-10-12T12:42:09.160Z,101453.89
2022-10-12T12:44:54.881Z,101450.27
2022-10-12T12:47:46.865Z,101447.19
2022-10-12T12:50:40.171Z,101444.07
2022-10-12T12:53:29.393Z,101440.67
2022-10-12T12:56:36.309Z,101437.90
2022-10-12T12:59:42.838Z,101438.73
2022-10-12T13:03:10.072Z,101439.13
2022-10-12T13:06:04.456Z,101435.21
2022-10-12T13:09:14.682Z,101432.67
2022-10-12T13:12:17.615Z,101434.30
2022-10-12T13:15:24.949Z,101435.38
2022-10-12T13:18:48.817Z,101430.27
2022-10-12T13:21:26.873Z,101435.02
2022-10-12T13:24:19.682Z,101429.64
2022-10-12T13:26:54.926Z,101429.60
2022-10-12T13:29:44.839Z,101429.71
2022-10-12T13:32:44.440Z,101431.84
2022-10-12T13:35:33.869Z,101426.88
2022-10-12T13:38:14.168Z,101426.08
2022-10-12T13:40:53.550Z,101426.52
2022-10-12T13:43:48.838Z,101426.02
2022-10-12T13:46:46.776Z,101422.61
2022-10-12T13:49:19.913Z,101419.02
2022-10-12T13:52:21.944Z,101419.47
2022-10-12T13:54:51.312Z,101419.55
2022-10-12T13:57:43.676Z,101415.73
2022-10-12T14:00:16.984Z,101413.69
2022-10-12T14:03:03.731Z,101414.63
2022-10-12T14:05:42.407Z,101414.09
2022-10-12T14:08:19.559Z,101416.19
2022-10-12T14:10:49.711Z,101412.04
2022-10-12T14:13:37.303Z,101409.02
2022-10-12T14:16:10.175Z,101408.98
2022-10-12T14:18:47.453Z,101404.23
2022-10-12T14:21:32.081Z,101401.13
2022-10-12T14:24:10.670Z,101404.45
2022-10-12T14:26:51.975Z,101401.48
2022-10-12T14:29:42.113Z,101397.95
2022-10-12T14:32:13.558Z,101393.91
2022-10-12T14:35:19.009Z,101395.16
2022-10-12T14:37:49.742Z,101393.28
2022-10-12T14:40:42.077Z,101397.52
2022-10-12T14:43:14.236Z,101397.86
2022-10-12T14:45:43.211Z,101400.29
2022-10-12T14:48:24.789Z,101396.69
2022-10-12T14:50:54.562Z,101395.20
2022-10-12T14:53:31.789Z,101392.30
2022-10-12T14:56:00.750Z,101390.47
2022-10-12T14:58:29.998Z,101389.80
2022-10-12T15:00:59.034Z,101391.40
2022-10-12T15:03:28.191Z,101390.90
2022-10-12T15:05:57.176Z,101388.16
2022-10-12T15:08:26.022Z,101388.14
2022-10-12T15:10:54.855Z,101386.17
2022-10-12T15:13:23.694Z,101387.69
2022-10-12T15:15:55.773Z,101387.48
2022-10-12T15:18:29.353Z,101388.00
2022-10-12T15:20:59.733Z,101389.73
2022-10-12T15:23:32.706Z,101386.69
2022-10-12T15:26:02.078Z,101382.05
2022-10-12T15:28:31.094Z,101380.52
2022-10-12T15:31:17.158Z,101377.23
2022-10-12T15:33:47.121Z,101376.11
2022-10-12T15:36:17.599Z,101375.79
2022-10-12T15:38:48.300Z,101375.40
2022-10-12T15:41:20.858Z,101375.42
2022-10-12T15:43:50.298Z,101376.48
2022-10-12T15:46:23.920Z,101378.09
2022-10-12T15:48:54.015Z,101378.59
2022-10-12T15:51:25.430Z,101379.83
2022-10-12T15:53:55.249Z,101379.30
2022-10-12T15:56:24.381Z,101381.08
2022-10-12T15:58:54.033Z,101379.88
2022-10-12T16:01:23.127Z,101380.59
2022-10-12T16:03:53.789Z,101380.06
2022-10-12T16:06:23.286Z,101376.79
2022-10-12T16:08:52.286Z,101376.42
2022-10-12T16:11:23.216Z,101376.79
2022-10-12T16:13:56.524Z,101379.10
2022-10-12T16:16:25.882Z,101383.04
2022-10-12T16:18:54.759Z,101381.41
2022-10-12T16:21:29.912Z,101377.71
2022-10-12T16:24:02.504Z,101377.58
2022-10-12T16:26:47.850Z,101373.17
2022-10-12T16:29:23.917Z,101372.40
2022-10-12T16:32:02.266Z,101373.23
2022-10-12T16:34:44.586Z,101373.34
2022-10-12T16:37:17.759Z,101375.22
2022-10-12T16:39:52.692Z,101375.80
2022-10-12T16:42:23.642Z,101376.54
2022-10-12T16:44:53.225Z,101370.88
2022-10-12T16:47:33.291Z,101378.81
2022-10-12T16:50:03.020Z,101373.63
2022-10-12T16:52:35.409Z,101373.02
2022-10-12T16:55:09.123Z,101378.05
2022-10-12T16:57:40.550Z,101378.27
2022-10-12T17:00:20.344Z,101373.43
2022-10-12T17:03:11.782Z,101370.74
2022-10-12T17:06:10.631Z,101374.20
2022-10-12T17:08:47.157Z,101375.27
2022-10-12T17:11:18.419Z,101375.40
2022-10-12T17:13:52.553Z,101376.21
2022-10-12T17:16:41.107Z,101376.39
2022-10-12T17:20:09.636Z,101379.61
2022-10-12T17:23:19.914Z,101381.88
2022-10-12T17:26:07.142Z,101383.35
2022-10-12T17:28:49.260Z,101380.27
2022-10-12T17:31:30.821Z,101384.80
2022-10-12T17:37:26.073Z,101383.15
2022-10-12T17:40:50.197Z,101386.84
2022-10-12T17:47:59.740Z,101385.44
2022-10-12T17:56:01.617Z,101385.48
2022-10-12T17:58:33.025Z,101381.59
2022-10-12T18:01:33.367Z,101381.10
2022-10-12T18:04:04.317Z,101381.99
2022-10-12T18:06:34.825Z,101379.05
2022-10-12T18:09:06.160Z,101377.86
2022-10-12T18:11:36.012Z,101379.69
2022-10-12T18:14:08.981Z,101378.04
2022-10-12T18:16:37.989Z,101378.14
2022-10-12T18:19:12.040Z,101386.56
2022-10-12T18:21:40.885Z,101389.07
2022-10-12T18:24:16.456Z,101391.60
2022-10-12T18:26:47.544Z,101392.36
2022-10-12T18:29:19.297Z,101391.89
2022-10-12T18:31:48.113Z,101390.36
2022-10-12T18:34:16.914Z,101389.17
2022-10-12T18:36:45.806Z,101390.25
2022-10-12T18:39:15.324Z,101388.21
2022-10-12T18:41:44.137Z,101388.45
2022-10-12T18:44:15.054Z,101383.84
2022-10-12T18:46:44.474Z,101381.34
2022-10-12T18:49:14.148Z,101384.23
2022-10-12T18:51:47.450Z,101392.48
2022-10-12T18:54:17.231Z,101392.04
2022-10-12T18:56:46.017Z,101396.08
2022-10-12T18:59:19.465Z,101393.86
2022-10-12T19:01:48.213Z,101393.73
2022-10-12T19:04:17.135Z,101394.46
2022-10-12T19:06:45.847Z,101390.88
2022-10-12T19:09:14.842Z,101392.48
2022-10-12T19:11:43.623Z,101389.77
2022-10-12T19:14:15.087Z,101390.69
2022-10-12T19:16:44.634Z,101389.02
2022-10-12T19:19:20.919Z,101389.06
2022-10-12T19:21:52.374Z,101389.31
2022-10-12T19:24:22.114Z,101388.84
2022-10-12T19:26:51.532Z,101388.85
2022-10-12T19:29:20.312Z,101389.90
2022-10-12T19:31:50.572Z,101391.11
2022-10-12T19:34:21.262Z,101390.60
2022-10-12T19:36:50.742Z,101396.70
2022-10-12T19:39:23.101Z,101399.52
2022-10-12T19:41:52.677Z,101399.04
2022-10-12T19:44:21.657Z,101399.40
2022-10-12T19:46:53.555Z,101392.51
2022-10-12T19:49:22.367Z,101393.77
2022-10-12T19:51:51.158Z,101389.98
2022-10-12T19:54:20.438Z,101387.44
2022-10-12T19:56:49.701Z,101386.10
2022-10-12T19:59:18.445Z,101383.05
2022-10-12T20:01:48.337Z,101387.41
2022-10-12T20:04:17.703Z,101386.57
2022-10-12T20:06:46.524Z,101387.08
2022-10-12T20:09:15.458Z,101386.58
2022-10-12T20:11:44.298Z,101384.88
2022-10-12T20:14:13.180Z,101383.34
2022-10-12T20:16:41.969Z,101379.02
2022-10-12T20:19:10.745Z,101380.46
2022-10-12T20:21:39.539Z,101384.48
2022-10-12T20:24:09.871Z,101382.64
2022-10-12T20:26:39.015Z,101382.13
2022-10-12T20:29:07.950Z,101377.17
2022-10-12T20:31:36.866Z,101376.70
2022-10-12T20:34:06.709Z,101373.98
2022-10-12T20:36:35.591Z,101372.48
2022-10-12T20:39:04.393Z,101372.85
2022-10-12T20:41:33.365Z,101371.48
2022-10-12T20:44:02.804Z,101370.77
2022-10-12T20:46:31.662Z,101372.52
2022-10-12T20:49:03.765Z,101372.38
2022-10-12T20:51:36.996Z,101372.23
2022-10-12T20:54:08.919Z,101370.02
2022-10-12T20:56:41.552Z,101368.70
2022-10-12T20:59:11.441Z,101366.90
2022-10-12T21:01:40.147Z,101364.19
2022-10-12T21:04:10.356Z,101365.23
2022-10-12T21:06:41.446Z,101364.71
2022-10-12T21:09:14.839Z,101363.31
2022-10-12T21:11:43.925Z,101362.27
2022-10-12T21:14:13.950Z,101362.98
2022-10-12T21:16:42.702Z,101361.23
2022-10-12T21:19:16.257Z,101357.61
2022-10-12T21:21:46.752Z,101358.52
2022-10-12T21:24:15.612Z,101357.49
2022-10-12T21:26:44.915Z,101355.79
2022-10-12T21:29:14.076Z,101354.79
2022-10-12T21:31:42.789Z,101353.45
2022-10-12T21:34:13.687Z,101358.85
2022-10-12T21:36:42.443Z,101357.33
2022-10-12T21:39:14.320Z,101360.84
2022-10-12T21:41:43.720Z,101360.88
2022-10-12T21:44:12.719Z,101361.42
2022-10-12T21:46:41.495Z,101361.27
2022-10-12T21:49:13.016Z,101369.61
2022-10-12T21:51:57.355Z,101367.03
2022-10-12T21:54:27.958Z,101367.90
2022-10-12T21:56:56.667Z,101365.48
2022-10-12T21:59:26.768Z,101363.56
2022-10-12T22:01:55.442Z,101363.05
2022-10-12T22:04:24.348Z,101363.73
2022-10-12T22:06:55.111Z,101364.10
2022-10-12T22:09:27.177Z,101361.68
2022-10-12T22:11:56.172Z,101361.02
2022-10-12T22:14:24.902Z,101361.20
2022-10-12T22:16:53.695Z,101364.52
2022-10-12T22:19:24.861Z,101369.06
2022-10-12T22:21:55.535Z,101369.79
2022-10-12T22:24:36.116Z,101368.94
2022-10-12T22:27:04.824Z,101372.58
2022-10-12T22:29:33.713Z,101372.58
2022-10-12T22:32:04.084Z,101369.64
2022-10-12T22:34:32.835Z,101365.16
2022-10-12T22:37:01.593Z,101363.30
2022-10-12T22:39:30.472Z,101364.00
2022-10-12T22:41:59.149Z,101364.36
2022-10-12T22:44:27.838Z,101362.15
2022-10-12T22:46:57.374Z,101361.32
2022-10-12T22:49:26.392Z,101363.96
2022-10-12T22:51:55.063Z,101362.61
2022-10-12T22:54:23.836Z,101362.80
2022-10-12T22:56:53.027Z,101362.99
2022-10-12T22:59:21.703Z,101361.27
2022-10-12T23:01:50.388Z,101357.15
2022-10-12T23:04:19.080Z,101358.71
2022-10-12T23:06:47.963Z,101354.57
2022-10-12T23:09:16.676Z,101354.23
2022-10-12T23:11:45.445Z,101354.07
2022-10-12T23:14:14.141Z,101357.88
2022-10-12T23:16:42.794Z,101359.09
2022-10-12T23:19:11.537Z,101355.45
2022-10-12T23:21:40.384Z,101355.45
2022-10-12T23:24:10.476Z,101351.48
2022-10-12T23:26:39.120Z,101357.19
2022-10-12T23:29:07.812Z,101358.06
2022-10-12T23:31:36.974Z,101358.41
2022-10-12T23:34:06.591Z,101358.42
2022-10-12T23:36:35.620Z,101356.86
2022-10-12T23:39:05.685Z,101353.23
2022-10-12T23:41:34.780Z,101353.23
2022-10-12T23:44:03.924Z,101353.40
2022-10-12T23:46:32.798Z,101357.71
2022-10-12T23:49:01.530Z,101357.37
2022-10-12T23:51:30.418Z,101354.95
2022-10-12T23:53:59.227Z,101353.04
2022-10-12T23:56:27.959Z,101349.23
2022-10-12T23:58:57.244Z,101347.16
